Adana Şakirpaşa Airport

Airport
ICAO code: 
LTAF
IATA Code: 
ADA
Summary
ICAO Region: 
EUR
Territory: 
Location: 
Adana, Adana
Serving: 
Adana
Elevation: 
65 ft
Coordinates: 
Aerial View: 
36° 58' 57" N, 35° 16' 59.002" E
Airport GND: 
Foreign Object Debris
Metar
Observation
LTAF 020320Z 08005KT CAVOK 09/M01 Q1015 NOSIG
Station
Adana / Sakirpasa
Date/Time
2021-12-02 03:20:00
Wind direction
80°
Wind speed
05 kts
Lowest cloud amount
clouds and visibility OK
Temperature
9°C
Dew point
-1°C
Humidity
49%
QNH
1015 hPa
Weather condition
n/a

Description

Military/Civil airport serving southern Turkey.

Climatology

Dry-summer subtropical ”Mediterranean" climate (Köppen climate classification Csa) - characterized by hot, dry summers and mild winters. During the summer, subtropical high pressure cells dominate, making rainfall unlikely except for the occasional thunderstorm. In the winter, periodic storms bring rain.

Runways

Designator Length Width Surface Rops
5/23 2750 45 ASP Yes/Yes
Airport map: 
Aerial View: 

SKYbrary Partners:

Safety knowledge contributed by: